createdAt,value
2022-12-20T00:02:02.190Z,35.43
2022-12-20T00:04:30.394Z,35.10
2022-12-20T00:06:58.590Z,35.36
2022-12-20T00:09:28.112Z,34.64
2022-12-20T00:11:56.250Z,35.20
2022-12-20T00:14:24.387Z,34.67
2022-12-20T00:16:52.566Z,34.68
2022-12-20T00:19:20.782Z,34.93
2022-12-20T00:21:49.005Z,35.14
2022-12-20T00:24:22.243Z,35.09
2022-12-20T00:26:55.345Z,34.66
2022-12-20T00:29:23.560Z,34.77
2022-12-20T00:31:51.786Z,35.23
2022-12-20T00:34:20.063Z,35.19
2022-12-20T00:36:48.297Z,34.64
2022-12-20T00:39:16.432Z,35.26
2022-12-20T00:41:44.692Z,34.70
2022-12-20T00:44:16.602Z,34.90
2022-12-20T00:46:44.802Z,34.63
2022-12-20T00:49:12.981Z,34.53
2022-12-20T00:51:41.125Z,34.51
2022-12-20T00:54:09.390Z,34.54
2022-12-20T00:56:37.601Z,35.31
2022-12-20T00:59:05.755Z,34.56
2022-12-20T01:01:35.811Z,35.26
2022-12-20T01:04:04.232Z,34.75
2022-12-20T01:06:32.413Z,34.96
2022-12-20T01:09:00.663Z,34.82
2022-12-20T01:11:30.952Z,34.53
2022-12-20T01:14:00.843Z,35.49
2022-12-20T01:16:30.884Z,35.16
2022-12-20T01:19:00.503Z,35.48
2022-12-20T01:21:28.715Z,34.48
2022-12-20T01:23:57.036Z,34.36
2022-12-20T01:26:28.766Z,34.30
2022-12-20T01:28:57.808Z,34.36
2022-12-20T01:31:26.537Z,34.96
2022-12-20T01:33:54.825Z,34.96
2022-12-20T01:36:25.921Z,34.48
2022-12-20T01:38:57.527Z,34.39
2022-12-20T01:41:25.698Z,34.50
2022-12-20T01:43:55.418Z,34.54
2022-12-20T01:46:24.561Z,35.02
2022-12-20T01:48:54.243Z,34.87
2022-12-20T01:51:24.349Z,34.42
2022-12-20T01:53:53.671Z,34.66
2022-12-20T01:56:21.821Z,34.27
2022-12-20T01:58:50.072Z,35.02
2022-12-20T02:01:18.234Z,34.82
2022-12-20T02:03:46.484Z,34.71
2022-12-20T02:06:19.234Z,35.04
2022-12-20T02:08:49.504Z,35.00
2022-12-20T02:11:26.126Z,35.10
2022-12-20T02:13:59.216Z,34.34
2022-12-20T02:16:28.196Z,34.46
2022-12-20T02:18:59.302Z,34.30
2022-12-20T02:21:30.220Z,34.66
2022-12-20T02:24:33.740Z,34.20
2022-12-20T02:27:38.624Z,34.62
2022-12-20T02:30:10.830Z,34.82
2022-12-20T02:32:40.909Z,34.39
2022-12-20T02:35:10.121Z,34.95
2022-12-20T02:37:38.247Z,34.55
2022-12-20T02:40:07.148Z,34.54
2022-12-20T02:42:35.742Z,34.58
2022-12-20T02:45:17.926Z,34.34
2022-12-20T02:47:50.535Z,34.23
2022-12-20T02:50:19.914Z,35.01
2022-12-20T02:52:48.295Z,34.62
2022-12-20T02:55:16.549Z,34.31
2022-12-20T02:57:46.895Z,35.05
2022-12-20T03:00:16.072Z,34.69
2022-12-20T03:03:02.614Z,34.78
2022-12-20T03:05:33.011Z,34.60
2022-12-20T03:08:02.094Z,34.43
2022-12-20T03:10:30.334Z,34.92
2022-12-20T03:12:58.687Z,35.01
2022-12-20T03:15:27.196Z,34.50
2022-12-20T03:17:57.895Z,34.23
2022-12-20T03:20:26.092Z,35.00
2022-12-20T03:22:55.739Z,35.02
2022-12-20T03:25:23.951Z,35.00
2022-12-20T03:27:52.278Z,34.86
2022-12-20T03:30:20.766Z,34.80
2022-12-20T03:32:48.915Z,34.87
2022-12-20T03:35:17.412Z,34.47
2022-12-20T03:37:45.544Z,35.01
2022-12-20T03:40:16.117Z,34.63
2022-12-20T03:42:45.318Z,34.32
2022-12-20T03:45:13.507Z,34.53
2022-12-20T03:47:41.787Z,34.94
2022-12-20T03:50:10.895Z,34.47
2022-12-20T03:52:40.080Z,34.88
2022-12-20T03:55:09.556Z,35.01
2022-12-20T03:57:43.201Z,35.31
2022-12-20T04:00:26.253Z,34.75
2022-12-20T04:03:01.707Z,34.96
2022-12-20T04:05:31.014Z,34.84
2022-12-20T04:07:59.344Z,34.73
2022-12-20T04:10:27.768Z,34.77
2022-12-20T04:12:57.391Z,34.32
2022-12-20T04:15:26.077Z,34.39
2022-12-20T04:17:54.627Z,35.25
2022-12-20T04:20:22.899Z,34.65
2022-12-20T04:23:00.263Z,34.39
2022-12-20T04:25:28.629Z,34.39
2022-12-20T04:27:58.548Z,34.81
2022-12-20T04:30:26.962Z,35.09
2022-12-20T04:32:55.448Z,34.93
2022-12-20T04:35:24.232Z,35.11
2022-12-20T04:37:52.835Z,35.22
2022-12-20T04:40:21.056Z,35.43
2022-12-20T04:42:53.725Z,35.56
2022-12-20T04:45:23.437Z,35.71
2022-12-20T04:47:53.448Z,35.16
2022-12-20T04:50:27.373Z,35.75
2022-12-20T04:53:12.845Z,35.28
2022-12-20T04:55:41.104Z,35.15
2022-12-20T04:58:09.291Z,34.99
2022-12-20T05:00:42.200Z,34.80
2022-12-20T05:03:33.442Z,35.55
2022-12-20T05:06:02.711Z,35.47
2022-12-20T05:08:31.280Z,34.86
2022-12-20T05:10:59.522Z,35.43
2022-12-20T05:13:27.699Z,34.85
2022-12-20T05:15:57.948Z,34.73
2022-12-20T05:18:30.151Z,34.77
2022-12-20T05:21:16.513Z,34.77
2022-12-20T05:24:04.557Z,34.73
2022-12-20T05:26:38.343Z,35.33
2022-12-20T05:29:06.734Z,34.93
2022-12-20T05:31:36.859Z,35.13
2022-12-20T05:34:05.333Z,35.37
2022-12-20T05:36:36.824Z,34.95
2022-12-20T05:39:07.303Z,34.66
2022-12-20T05:41:40.632Z,34.99
2022-12-20T05:44:09.720Z,35.19
2022-12-20T05:46:42.586Z,34.81
2022-12-20T05:49:16.438Z,35.22
2022-12-20T05:51:44.758Z,35.04
2022-12-20T05:54:26.470Z,34.47
2022-12-20T05:56:59.950Z,34.76
2022-12-20T05:59:35.545Z,34.95
2022-12-20T06:02:07.843Z,35.18
2022-12-20T06:04:38.223Z,34.40
2022-12-20T06:07:13.958Z,34.82
2022-12-20T06:09:44.420Z,34.21
2022-12-20T06:12:15.863Z,34.38
2022-12-20T06:14:44.341Z,34.20
2022-12-20T06:17:15.289Z,34.35
2022-12-20T06:19:44.319Z,34.69
2022-12-20T06:22:16.123Z,34.39
2022-12-20T06:24:49.068Z,34.97
2022-12-20T06:27:23.049Z,34.88
2022-12-20T06:29:59.991Z,34.60
2022-12-20T06:32:36.276Z,34.75
2022-12-20T06:35:04.556Z,34.61
2022-12-20T06:37:33.230Z,34.31
2022-12-20T06:40:01.581Z,34.31
2022-12-20T06:42:29.908Z,34.39
2022-12-20T06:44:58.192Z,34.87
2022-12-20T06:47:26.323Z,34.30
2022-12-20T06:49:56.381Z,34.62
2022-12-20T06:52:24.659Z,34.44
2022-12-20T06:54:55.978Z,34.27
2022-12-20T06:57:24.785Z,34.67
2022-12-20T06:59:53.568Z,34.76
2022-12-20T07:02:21.868Z,35.00
2022-12-20T07:04:50.112Z,35.13
2022-12-20T07:07:19.719Z,34.47
2022-12-20T07:09:47.837Z,35.29
2022-12-20T07:12:16.011Z,34.90
2022-12-20T07:14:44.600Z,35.25
2022-12-20T07:17:12.836Z,35.10
2022-12-20T07:19:45.581Z,34.90
2022-12-20T07:22:16.961Z,34.65
2022-12-20T07:24:47.713Z,34.90
2022-12-20T07:27:15.958Z,35.23
2022-12-20T07:29:44.235Z,35.35
2022-12-20T07:32:12.970Z,34.89
2022-12-20T07:34:41.134Z,34.95
2022-12-20T07:37:09.742Z,35.44
2022-12-20T07:39:37.862Z,35.45
2022-12-20T07:42:07.565Z,34.51
2022-12-20T07:44:43.404Z,34.81
2022-12-20T07:47:11.941Z,34.95
2022-12-20T07:49:40.060Z,34.87
2022-12-20T07:52:08.316Z,34.64
2022-12-20T07:54:37.222Z,34.32
2022-12-20T07:57:09.046Z,34.28
2022-12-20T07:59:38.207Z,34.50
2022-12-20T08:02:06.587Z,34.40
2022-12-20T08:04:34.912Z,33.68
2022-12-20T08:07:03.680Z,33.91
2022-12-20T08:09:33.059Z,34.42
2022-12-20T08:12:01.261Z,34.31
2022-12-20T08:14:30.799Z,33.99
2022-12-20T08:16:59.074Z,33.72
2022-12-20T08:19:32.168Z,34.07
2022-12-20T08:22:01.154Z,34.36
2022-12-20T08:24:29.356Z,34.09
2022-12-20T08:26:57.983Z,34.31
2022-12-20T08:29:26.177Z,34.23
2022-12-20T08:31:55.777Z,33.82
2022-12-20T08:34:24.008Z,34.15
2022-12-20T08:36:52.212Z,34.24
2022-12-20T08:39:20.385Z,33.90
2022-12-20T08:41:48.475Z,33.98
2022-12-20T08:44:16.713Z,33.69
2022-12-20T08:46:44.864Z,34.25
2022-12-20T08:49:15.548Z,33.65
2022-12-20T08:51:43.796Z,34.02
2022-12-20T08:54:11.947Z,34.41
2022-12-20T08:56:40.143Z,33.74
2022-12-20T08:59:08.248Z,34.17
2022-12-20T09:01:36.543Z,34.42
2022-12-20T09:04:05.638Z,33.77
2022-12-20T09:06:36.075Z,33.67
2022-12-20T09:09:04.393Z,34.20
2022-12-20T09:11:32.545Z,34.13
2022-12-20T09:14:00.758Z,33.43
2022-12-20T09:16:29.815Z,33.61
2022-12-20T09:19:04.623Z,33.47
2022-12-20T09:21:35.087Z,33.47
2022-12-20T09:24:03.412Z,33.71
2022-12-20T09:26:32.431Z,33.61
2022-12-20T09:29:02.166Z,33.45
2022-12-20T09:31:30.446Z,33.64
2022-12-20T09:33:59.242Z,33.03
2022-12-20T09:36:28.092Z,33.49
2022-12-20T09:38:57.507Z,33.35
2022-12-20T09:41:31.307Z,33.80
2022-12-20T09:43:59.679Z,33.30
2022-12-20T09:46:27.769Z,33.41
2022-12-20T09:48:55.997Z,33.79
2022-12-20T09:51:33.076Z,33.06
2022-12-20T09:54:07.610Z,33.50
2022-12-20T09:56:37.624Z,33.50
2022-12-20T09:59:06.638Z,33.62
2022-12-20T10:01:39.696Z,33.70
2022-12-20T10:04:09.456Z,33.44
2022-12-20T10:06:45.342Z,33.00
2022-12-20T10:09:22.640Z,33.01
2022-12-20T10:11:57.471Z,32.86
2022-12-20T10:14:32.642Z,32.67
2022-12-20T10:17:03.444Z,32.94
2022-12-20T10:19:40.266Z,32.96
2022-12-20T10:22:10.819Z,33.30
2022-12-20T10:24:40.378Z,33.34
2022-12-20T10:27:13.256Z,33.32
2022-12-20T10:29:41.372Z,33.15
2022-12-20T10:32:14.268Z,32.74
2022-12-20T10:34:48.488Z,33.47
2022-12-20T10:37:17.082Z,33.11
2022-12-20T10:39:49.072Z,33.42
2022-12-20T10:42:38.809Z,33.29
2022-12-20T10:45:07.935Z,32.98
2022-12-20T10:47:39.349Z,33.04
2022-12-20T10:50:10.454Z,33.28
2022-12-20T10:52:38.926Z,33.28
2022-12-20T10:55:25.972Z,33.31
2022-12-20T10:57:54.127Z,33.57
2022-12-20T11:00:29.676Z,33.56
2022-12-20T11:03:07.417Z,33.28
2022-12-20T11:05:35.715Z,34.08
2022-12-20T11:11:18.813Z,33.75
2022-12-20T11:13:47.336Z,34.28
2022-12-20T11:16:27.302Z,34.17
2022-12-20T11:19:04.940Z,33.90
2022-12-20T11:21:35.823Z,33.90
2022-12-20T11:24:07.579Z,33.64
2022-12-20T11:26:49.423Z,33.80
2022-12-20T11:29:28.426Z,33.68
2022-12-20T11:32:00.463Z,33.55
2022-12-20T11:34:35.204Z,34.11
2022-12-20T11:37:12.217Z,34.18
2022-12-20T11:39:42.059Z,34.03
2022-12-20T11:42:15.620Z,34.30
2022-12-20T11:45:01.685Z,34.37
2022-12-20T11:47:52.168Z,33.70
2022-12-20T11:50:36.680Z,33.72
2022-12-20T11:53:06.721Z,34.22
2022-12-20T11:55:36.130Z,34.37
2022-12-20T11:58:18.517Z,33.82
2022-12-20T12:00:50.937Z,34.21
2022-12-20T12:03:21.184Z,33.70
2022-12-20T12:05:52.230Z,34.11
2022-12-20T12:08:21.437Z,33.79
2022-12-20T12:10:54.273Z,33.96
2022-12-20T12:13:25.490Z,33.88
2022-12-20T12:15:56.567Z,33.54
2022-12-20T12:18:25.876Z,33.21
2022-12-20T12:21:00.067Z,33.51
2022-12-20T12:23:32.371Z,33.71
2022-12-20T12:26:00.552Z,33.97
2022-12-20T12:28:30.021Z,33.79
2022-12-20T12:30:59.573Z,33.50
2022-12-20T12:33:38.234Z,34.05
2022-12-20T12:36:18.159Z,34.25
2022-12-20T12:39:11.932Z,33.63
2022-12-20T12:42:14.351Z,33.72
2022-12-20T12:44:47.944Z,33.78
2022-12-20T12:47:23.255Z,34.26
2022-12-20T12:49:52.685Z,34.53
2022-12-20T12:52:36.698Z,33.92
2022-12-20T12:55:05.180Z,34.72
2022-12-20T12:57:33.711Z,34.08
2022-12-20T13:00:03.703Z,34.47
2022-12-20T13:02:51.791Z,34.89
2022-12-20T13:05:40.623Z,34.32
2022-12-20T13:08:16.805Z,34.56
2022-12-20T13:11:00.802Z,34.94
2022-12-20T13:13:31.728Z,34.70
2022-12-20T13:16:12.546Z,34.40
2022-12-20T13:18:40.705Z,34.57
2022-12-20T13:21:37.099Z,34.74
2022-12-20T13:24:36.398Z,34.50
2022-12-20T13:27:04.989Z,34.76
2022-12-20T13:29:35.043Z,34.57
2022-12-20T13:32:04.700Z,34.13
2022-12-20T13:34:55.269Z,34.09
2022-12-20T13:37:29.945Z,34.38
2022-12-20T13:39:58.226Z,34.16
2022-12-20T13:42:35.531Z,33.94
2022-12-20T13:45:04.942Z,34.31
2022-12-20T13:47:39.039Z,33.91
2022-12-20T13:50:23.703Z,34.26
2022-12-20T13:52:52.781Z,34.21
2022-12-20T13:55:26.702Z,34.18
2022-12-20T13:57:55.336Z,34.60
2022-12-20T14:00:25.573Z,33.93
2022-12-20T14:02:55.608Z,34.39
2022-12-20T14:05:26.573Z,34.48
2022-12-20T14:07:59.319Z,34.52
2022-12-20T14:10:28.924Z,34.41
2022-12-20T14:12:57.316Z,33.90
2022-12-20T14:15:27.625Z,33.71
2022-12-20T14:17:57.469Z,34.61
2022-12-20T14:20:28.425Z,34.17
2022-12-20T14:23:04.498Z,34.28
2022-12-20T14:25:41.585Z,34.04
2022-12-20T14:28:19.999Z,33.90
2022-12-20T14:30:51.478Z,33.90
2022-12-20T14:33:22.204Z,34.21
2022-12-20T14:35:51.119Z,34.08
2022-12-20T14:38:23.701Z,33.95
2022-12-20T14:40:54.123Z,33.72
2022-12-20T14:43:28.277Z,34.22
2022-12-20T14:46:10.475Z,34.05
2022-12-20T14:48:40.197Z,33.77
2022-12-20T14:51:08.811Z,33.51
2022-12-20T14:53:37.958Z,33.61
2022-12-20T14:56:06.512Z,33.89
2022-12-20T14:58:35.110Z,33.75
2022-12-20T15:01:04.990Z,33.59
2022-12-20T15:03:33.771Z,33.82
2022-12-20T15:06:03.303Z,34.35
2022-12-20T15:08:32.928Z,33.86
2022-12-20T15:11:03.521Z,34.47
2022-12-20T15:13:33.205Z,34.19
2022-12-20T15:16:02.632Z,33.92
2022-12-20T15:18:30.845Z,33.91
2022-12-20T15:21:14.138Z,34.68
2022-12-20T15:23:44.078Z,34.64
2022-12-20T15:26:12.884Z,34.32
2022-12-20T15:28:41.077Z,34.19
2022-12-20T15:31:11.137Z,34.08
2022-12-20T15:33:40.288Z,34.80
2022-12-20T15:36:08.724Z,34.41
2022-12-20T15:39:10.686Z,34.51
2022-12-20T15:41:27.563Z,34.95
2022-12-20T15:43:57.229Z,34.39
2022-12-20T15:46:25.456Z,34.66
2022-12-20T15:48:53.742Z,34.41
2022-12-20T15:51:25.344Z,34.25
2022-12-20T15:53:54.865Z,34.77
2022-12-20T15:56:25.117Z,34.80
2022-12-20T15:58:53.774Z,34.14
2022-12-20T16:01:22.932Z,34.46
2022-12-20T16:03:51.143Z,34.22
2022-12-20T16:06:19.255Z,33.97
2022-12-20T16:08:47.496Z,33.63
2022-12-20T16:11:20.699Z,34.17
2022-12-20T16:13:48.808Z,33.94
2022-12-20T16:16:18.185Z,33.80
2022-12-20T16:18:46.458Z,33.32
2022-12-20T16:21:17.438Z,33.65
2022-12-20T16:23:45.787Z,33.33
2022-12-20T16:26:14.820Z,33.71
2022-12-20T16:28:44.398Z,33.91
2022-12-20T16:31:13.691Z,33.89
2022-12-20T16:33:42.059Z,33.43
2022-12-20T16:36:11.703Z,33.86
2022-12-20T16:38:39.802Z,33.84
2022-12-20T16:41:12.928Z,33.93
2022-12-20T16:43:41.115Z,33.75
2022-12-20T16:46:12.615Z,33.57
2022-12-20T16:48:41.753Z,33.63
2022-12-20T16:51:22.940Z,33.34
2022-12-20T16:56:39.285Z,33.42
2022-12-20T16:59:18.990Z,33.47
2022-12-20T17:01:49.536Z,33.26
2022-12-20T17:04:19.017Z,33.90
2022-12-20T17:06:47.098Z,33.08
2022-12-20T17:12:01.582Z,33.41
2022-12-20T17:14:29.698Z,33.64
2022-12-20T17:16:59.998Z,33.24
2022-12-20T17:19:28.249Z,33.07
2022-12-20T17:24:41.765Z,33.21
2022-12-20T17:27:10.560Z,33.05
2022-12-20T17:29:38.685Z,33.23
2022-12-20T17:32:18.343Z,33.70
2022-12-20T17:34:46.522Z,33.38
2022-12-20T17:37:14.631Z,33.26
2022-12-20T17:39:42.735Z,33.66
2022-12-20T17:42:11.043Z,33.33
2022-12-20T17:44:39.211Z,33.95
2022-12-20T17:47:07.613Z,33.60
2022-12-20T17:49:37.132Z,33.83
2022-12-20T17:52:05.712Z,33.95
2022-12-20T17:54:39.709Z,33.53
2022-12-20T17:57:13.967Z,33.20
2022-12-20T17:59:42.428Z,33.89
2022-12-20T18:02:20.031Z,33.37
2022-12-20T18:04:50.008Z,33.74
2022-12-20T18:07:18.341Z,33.14
2022-12-20T18:09:48.031Z,33.69
2022-12-20T18:12:16.177Z,33.56
2022-12-20T18:14:44.886Z,33.12
2022-12-20T18:17:13.203Z,33.26
2022-12-20T18:19:41.469Z,33.07
2022-12-20T18:22:11.009Z,32.89
2022-12-20T18:24:39.106Z,33.40
2022-12-20T18:27:07.200Z,33.55
2022-12-20T18:29:35.329Z,33.13
2022-12-20T18:32:03.547Z,33.56
2022-12-20T18:34:31.760Z,32.96
2022-12-20T18:37:01.933Z,33.24
2022-12-20T18:39:31.525Z,33.63
2022-12-20T18:41:59.700Z,33.28
2022-12-20T18:44:27.849Z,33.31
2022-12-20T18:46:55.933Z,32.88
2022-12-20T18:49:24.084Z,33.43
2022-12-20T18:51:52.211Z,33.07
2022-12-20T18:54:20.423Z,32.96
2022-12-20T18:56:50.477Z,32.97
2022-12-20T18:59:18.694Z,32.87
2022-12-20T19:01:46.944Z,33.60
2022-12-20T19:04:20.873Z,32.97
2022-12-20T19:06:52.331Z,33.25
2022-12-20T19:09:20.421Z,32.93
2022-12-20T19:11:56.186Z,33.01
2022-12-20T19:14:25.430Z,32.92
2022-12-20T19:16:53.724Z,33.01
2022-12-20T19:19:21.889Z,33.14
2022-12-20T19:21:49.947Z,33.15
2022-12-20T19:24:18.082Z,33.48
2022-12-20T19:26:46.142Z,32.88
2022-12-20T19:29:15.648Z,33.66
2022-12-20T19:31:43.866Z,33.11
2022-12-20T19:34:13.527Z,33.79
2022-12-20T19:36:42.379Z,33.03
2022-12-20T19:39:14.239Z,33.05
2022-12-20T19:41:42.383Z,33.27
2022-12-20T19:44:10.505Z,33.00
2022-12-20T19:46:40.351Z,33.35
2022-12-20T19:49:08.487Z,33.64
2022-12-20T19:51:36.615Z,33.08
2022-12-20T19:54:04.799Z,33.08
2022-12-20T19:56:35.429Z,33.31
2022-12-20T19:59:03.570Z,33.30
2022-12-20T20:01:31.739Z,33.01
2022-12-20T20:04:01.887Z,33.35
2022-12-20T20:06:30.159Z,33.83
2022-12-20T20:08:59.890Z,33.29
2022-12-20T20:11:28.390Z,33.42
2022-12-20T20:13:56.543Z,33.48
2022-12-20T20:16:25.083Z,33.52
2022-12-20T20:18:53.803Z,33.78
2022-12-20T20:21:24.051Z,33.36
2022-12-20T20:23:52.474Z,33.37
2022-12-20T20:26:21.810Z,33.33
2022-12-20T20:28:50.480Z,33.55
2022-12-20T20:31:19.329Z,34.01
2022-12-20T20:33:47.641Z,33.16
2022-12-20T20:36:16.764Z,33.80
2022-12-20T20:38:46.381Z,33.86
2022-12-20T20:41:15.222Z,33.45
2022-12-20T20:43:43.390Z,33.68
2022-12-20T20:46:12.559Z,33.84
2022-12-20T20:48:40.754Z,34.08
2022-12-20T20:51:08.940Z,33.59
2022-12-20T20:53:37.114Z,33.25
2022-12-20T20:56:07.270Z,33.64
2022-12-20T20:58:35.663Z,33.48
2022-12-20T21:01:04.766Z,33.72
2022-12-20T21:03:33.251Z,33.66
2022-12-20T21:08:49.543Z,33.61
2022-12-20T21:11:19.076Z,33.77
2022-12-20T21:13:47.295Z,33.76
2022-12-20T21:16:20.446Z,33.80
2022-12-20T21:18:51.915Z,33.41
2022-12-20T21:21:20.354Z,33.77
2022-12-20T21:23:48.732Z,33.79
2022-12-20T21:26:18.753Z,33.49
2022-12-20T21:28:47.127Z,33.88
2022-12-20T21:31:16.230Z,33.51
2022-12-20T21:33:45.851Z,33.78
2022-12-20T21:36:15.484Z,34.01
2022-12-20T21:38:43.730Z,34.00
2022-12-20T21:41:13.137Z,34.31
2022-12-20T21:43:42.671Z,33.62
2022-12-20T21:46:11.612Z,34.00
2022-12-20T21:48:40.112Z,34.17
2022-12-20T21:51:10.263Z,33.92
2022-12-20T21:53:41.922Z,33.55
2022-12-20T21:56:10.080Z,33.39
2022-12-20T21:58:38.187Z,33.85
2022-12-20T22:01:08.329Z,33.44
2022-12-20T22:03:36.844Z,34.18
2022-12-20T22:06:05.239Z,33.63
2022-12-20T22:08:33.630Z,33.64
2022-12-20T22:11:02.246Z,34.12
2022-12-20T22:13:33.229Z,34.32
2022-12-20T22:16:08.403Z,33.52
2022-12-20T22:18:36.742Z,34.07
2022-12-20T22:21:05.073Z,33.72
2022-12-20T22:23:33.472Z,33.54
2022-12-20T22:26:03.155Z,34.27
2022-12-20T22:28:31.307Z,33.48
2022-12-20T22:30:59.399Z,34.34
2022-12-20T22:33:28.919Z,33.65
2022-12-20T22:35:58.626Z,33.74
2022-12-20T22:38:26.707Z,33.61
2022-12-20T22:40:58.912Z,33.60
2022-12-20T22:43:27.168Z,33.60
2022-12-20T22:45:58.444Z,34.24
2022-12-20T22:48:28.007Z,33.93
2022-12-20T22:50:59.721Z,33.92
2022-12-20T22:53:28.256Z,33.97
2022-12-20T22:55:56.335Z,33.81
2022-12-20T22:58:24.503Z,34.40
2022-12-20T23:00:52.558Z,33.87
2022-12-20T23:03:20.776Z,33.68
2022-12-20T23:05:56.917Z,33.90
2022-12-20T23:08:25.501Z,34.07
2022-12-20T23:11:10.675Z,33.82
2022-12-20T23:13:56.639Z,33.73
2022-12-20T23:16:25.009Z,33.83
2022-12-20T23:18:55.114Z,33.51
2022-12-20T23:21:42.092Z,34.01
2022-12-20T23:24:10.378Z,34.22
2022-12-20T23:26:38.704Z,34.11
2022-12-20T23:29:07.006Z,33.84
2022-12-20T23:31:35.225Z,33.94
2022-12-20T23:34:03.455Z,33.73
2022-12-20T23:36:33.770Z,33.64
2022-12-20T23:39:01.952Z,33.81
2022-12-20T23:41:30.386Z,34.38
2022-12-20T23:43:58.493Z,33.92
2022-12-20T23:46:26.845Z,34.10
2022-12-20T23:48:55.048Z,34.30
2022-12-20T23:51:23.183Z,33.92
2022-12-20T23:53:53.232Z,33.76
2022-12-20T23:56:22.103Z,34.21
2022-12-20T23:58:54.299Z,33.73
